Address 0xa34656cfd58e9ece512a716e226be20c8a3e26e9 24

 

Overview

Balance:
0.000225331852170404 ETH

ETH Value:
$0.70 (@ $3,095.34/ETH)
Txn Hash Method
Block
From
To
Value [Txn Fee]
0x9495342f22ab0739620e4109ed37fe3e1dbcff6bf93280df04d21f088cb204b7Send Tokens1812295452024-02-16 5:07:0392 days 1 hr ago0xa34656cfd58e9ece512a716e226be20c8a3e26e9OUT Stargate Finance: STG Token0.000124867301274 ETH0.00008686 0.1
0x85771b6694554d4dda28ef40988dcc3275540661ada1de60103becebad521ef5Bridge1812267572024-02-16 4:54:5092 days 1 hr ago0xa34656cfd58e9ece512a716e226be20c8a3e26e9OUT 0x081df5af5d022d4a4a4520d4d0d336b8432fdbbb0.000017881011059 ETH0.00011348 0.1
0x01cdee7a707f091e2351227bf4de820842275810bed83981c8701018e0869812Approve1812266872024-02-16 4:54:3192 days 1 hr ago0xa34656cfd58e9ece512a716e226be20c8a3e26e9OUT Tether: USDT Token0 ETH0.00004988 0.1
0x06ee2458288e15d56b7fa41e6ce430d239c202fa8c542add8d31c43175d89f35Send From1812265482024-02-16 4:53:5392 days 1 hr ago0xa34656cfd58e9ece512a716e226be20c8a3e26e9OUT 0x863656e346d8a42ec7caaad606611b6fd8916f320.000073007468733 ETH0.00010281 0.1
0xf8a4d0e1c09eb8971fee0bb42d0a0bb73d2e6d87d1d68f0f98250d83031a3464Approve1812264842024-02-16 4:53:3592 days 1 hr ago0xa34656cfd58e9ece512a716e226be20c8a3e26e9OUT 0x8bf591eae535f93a242d5a954d3cde648b48a5a80 ETH0.0000499 0.1
0x16264605c9add07dbde2290ca2a904ed7d6ed8a1c711beba95fb364b350c8ce1Execute1812262922024-02-16 4:52:4692 days 1 hr ago0xa34656cfd58e9ece512a716e226be20c8a3e26e9OUT Uniswap: Universal Router V1 20.000007493846118 ETH0.00012363 0.1
0x48929a261ef889980d4d407246602d0fa2b654d8fbaf127883c14717dd854fc6Transfer1812209292024-02-16 4:29:5792 days 1 hr ago0xf92402bb795fd7cd08fb83839689db79099c8c9c IN 0xa34656cfd58e9ece512a716e226be20c8a3e26e90.00082 ETH0.0000252 0.1
0x57347a9a462776e8ffc2ee9e1878feb2ebf9a8744b7067f1c1b9c7b5c016a318Execute1413873132023-10-17 11:49:50213 days 18 hrs ago0xa34656cfd58e9ece512a716e226be20c8a3e26e9OUT Uniswap: Universal Router V1 20.00000784393398 ETH0.00006338 0.1
0x9bd62b94e197312f48b20191dfc00b60725d8e6304829f5bae9abee414fe0df0Swap ETH1413866092023-10-17 11:46:41213 days 18 hrs ago0xa34656cfd58e9ece512a716e226be20c8a3e26e9OUT Stargate Finance: ETH Router0.001414783601691 ETH0.00007665 0.1
0x8636878a4c822e964f2293e527fd0da4accb68a0e4c9e2384bb6b64980ccf026Send Tokens1413864462023-10-17 11:45:59213 days 18 hrs ago0xa34656cfd58e9ece512a716e226be20c8a3e26e9OUT Stargate Finance: STG Token0.000150511498308 ETH0.0000584 0.1
0xc740dd4c8f911c7172faafa9160e0918002e997c57381403f8f63bba2895f63bTransfer1413856922023-10-17 11:42:40213 days 18 hrs ago0x0938c63109801ee4243a487ab84dffa2bba4589e IN 0xa34656cfd58e9ece512a716e226be20c8a3e26e90.0018 ETH0.00001398 0.1
0x736f10bf397acef94f83c416ee60bd84cd1f65a4953dbff64d735e309fed6807Swap ETH1397389712023-10-11 17:54:51219 days 12 hrs ago0xa34656cfd58e9ece512a716e226be20c8a3e26e9OUT Stargate Finance: ETH Router0.001443931477377 ETH0.00007629 0.1
0xf3a74699bc17df051ea9a32b2343a5e022cb58b077b86844dc0fbeadfb689a3fSend Tokens1397388002023-10-11 17:54:07219 days 12 hrs ago0xa34656cfd58e9ece512a716e226be20c8a3e26e9OUT Stargate Finance: STG Token0.00015070289852 ETH0.00006014 0.1
0x18cf614ef04050e659ac18291708febf5d48e5c4265cc8b20d821ed9d1a757eeTransfer1397382942023-10-11 17:51:54219 days 12 hrs ago0x0938c63109801ee4243a487ab84dffa2bba4589e IN 0xa34656cfd58e9ece512a716e226be20c8a3e26e90.0015 ETH0.00001642 0.1
0xdcc11403252486bb45b4513901d0e41d89d600be86b2b38208186c3340a169d0Send From1379912352023-10-06 6:02:10225 days 14 mins ago0xa34656cfd58e9ece512a716e226be20c8a3e26e9OUT Bitcoin Avalanche Bridged: BTC.b Token0.000043159245216 ETH0.00005427 0.1
0x1227da5268eb9ec7d0c273cda571b3ed81b8f61070c6369490c637c0766e8d31Swap Exact NATIV...1379910042023-10-06 6:01:11225 days 15 mins ago0xa34656cfd58e9ece512a716e226be20c8a3e26e9OUT Trader Joe: LBRouter v2.10.00005 ETH0.00005236 0.1
0x39ee709ad48614a49ddbd275bef5fcbea3481575384a14c516f75b3f51a44ac7Swap ETH1379906162023-10-06 5:59:35225 days 17 mins ago0xa34656cfd58e9ece512a716e226be20c8a3e26e9OUT Stargate Finance: Widget Swap0.001955962801774 ETH0.00007585 0.1
0xc59a0fd3db6956d2d32b2020569bb569e09593aa1ab706ce433511d6ec4a9fc0Send Tokens1379904942023-10-06 5:59:04225 days 17 mins ago0xa34656cfd58e9ece512a716e226be20c8a3e26e9OUT Stargate Finance: STG Token0.000255836097387 ETH0.00005345 0.1
0x1439fc94199f366a80ba3b01341b050c6c7d971b2101233d67fd63f357c322a7Transfer1379900992023-10-06 5:57:23225 days 19 mins ago0x0938c63109801ee4243a487ab84dffa2bba4589e IN 0xa34656cfd58e9ece512a716e226be20c8a3e26e90.00277708 ETH0.00001388 0.1
0xf59d6e6a0fde3f0d2cb32ac97d2ddd9363c9cf460bd4c206c9c4c0d9ff9445efCross Swap1087282202023-07-07 9:23:18315 days 20 hrs ago0xa34656cfd58e9ece512a716e226be20c8a3e26e9OUT 0x4ab421de52b3112d02442b040dd3dc73e8af63b50.000349921013819 ETH0.00015436 0.1
0x00674c7d119e66603466eb7bfcb347e895f26b927d02c47487020e7286b95058Approve1087278012023-07-07 9:21:33315 days 20 hrs ago0xa34656cfd58e9ece512a716e226be20c8a3e26e9OUT Arbitrum: USDC Token0 ETH0.00004894 0.1
0xd26961ef3fe7fb1f1ca9ab9c6f023d9d94ce4bbcb26e61410db394e68e7491d2Send From1087271462023-07-07 9:18:49315 days 20 hrs ago0xa34656cfd58e9ece512a716e226be20c8a3e26e9OUT 0x1c3979c2bb4f0e6dcb75daf22ad0741cf7d5f1600.000027237161448 ETH0.00010516 0.1
0x05fa0386354f047e069d17456379fe00b4186ad1ffee99216ed94bc11d5e1e18Approve1087268132023-07-07 9:17:27315 days 20 hrs ago0xa34656cfd58e9ece512a716e226be20c8a3e26e9OUT Arbitrum: USDC Token0 ETH0.00004937 0.1
0x971c511c4c2fe5844e2fdcdf8108780727d5450a2432ee7f237f485637f59ff8Execute1087264972023-07-07 9:16:08315 days 21 hrs ago0xa34656cfd58e9ece512a716e226be20c8a3e26e9OUT Uniswap: Universal Router 30.000118993840733 ETH0.0001181 0.1
0x195bf69adc5824dca268abf127d4417964de33acd91594bac1c5ed02644f02a2Transfer1087254572023-07-07 9:11:50315 days 21 hrs ago0x0938c63109801ee4243a487ab84dffa2bba4589e IN 0xa34656cfd58e9ece512a716e226be20c8a3e26e90.001 ETH0.00003413 0.1
[ Download CSV Export 
Latest 6 internal transactions
Parent Txn Hash Block From To Value
0x85771b6694554d4dda28ef40988dcc3275540661ada1de60103becebad521ef51812267572024-02-16 4:54:5092 days 1 hr ago Layer Zero: Ultra Light Node v20xa34656cfd58e9ece512a716e226be20c8a3e26e90.00000298016850994 ETH
0x16264605c9add07dbde2290ca2a904ed7d6ed8a1c711beba95fb364b350c8ce11812262922024-02-16 4:52:4692 days 1 hr ago Uniswap: Universal Router V1 20xa34656cfd58e9ece512a716e226be20c8a3e26e90.00000003728281651 ETH
0x57347a9a462776e8ffc2ee9e1878feb2ebf9a8744b7067f1c1b9c7b5c016a3181413873132023-10-17 11:49:50213 days 18 hrs ago Uniswap: Universal Router V1 20xa34656cfd58e9ece512a716e226be20c8a3e26e90.000000038962011348 ETH
0x39ee709ad48614a49ddbd275bef5fcbea3481575384a14c516f75b3f51a44ac71379906162023-10-06 5:59:35225 days 17 mins ago Layer Zero: Ultra Light Node v20xa34656cfd58e9ece512a716e226be20c8a3e26e90.00003043592111516 ETH
0x971c511c4c2fe5844e2fdcdf8108780727d5450a2432ee7f237f485637f59ff81087264972023-07-07 9:16:08315 days 21 hrs ago Uniswap: Universal Router 30xa34656cfd58e9ece512a716e226be20c8a3e26e90.000000594015163348 ETH
0x4d81ccd7e10ad92180bfac197d420161ea67cd46836e6a0eb22ec14f91520b0b830713142023-04-22 9:22:09391 days 20 hrs ago Stargate Finance: SGETH Token0xa34656cfd58e9ece512a716e226be20c8a3e26e90.028404260725686878 ETH
[ Download CSV Export 
Loading

Contract Name:
0 ETH

Compiler Version
0

Optimization Enabled:
0 ETH

Other Settings:
-NA-
Block Transaction Gas Used Reward
Age Block Fee Address BC Fee Address Voting Power Jailed Incoming
Block Uncle Number Difficulty Gas Used Reward
Loading
Make sure to use the "Vote Down" button for any spammy posts, and the "Vote Up" for interesting conversations.